sensor_id;sensor_type;location;lat;lon;timestamp;pressure;altitude;pressure_sealevel;temperature;humidity
44349;BME280;30068;50.986;4.564;2023-08-20T00:02:14;102089.38;;;26.99;56.54
44349;BME280;30068;50.986;4.564;2023-08-20T00:04:40;102085.78;;;26.98;56.55
44349;BME280;30068;50.986;4.564;2023-08-20T00:07:08;102090.41;;;26.98;56.34
44349;BME280;30068;50.986;4.564;2023-08-20T00:09:34;102097.78;;;26.97;56.69
44349;BME280;30068;50.986;4.564;2023-08-20T00:11:59;102097.38;;;26.94;56.43
44349;BME280;30068;50.986;4.564;2023-08-20T00:14:51;102105.16;;;26.97;56.44
44349;BME280;30068;50.986;4.564;2023-08-20T00:17:09;102110.66;;;26.97;56.65
44349;BME280;30068;50.986;4.564;2023-08-20T00:19:35;102109.78;;;26.96;56.46
44349;BME280;30068;50.986;4.564;2023-08-20T00:22:00;102108.13;;;26.95;56.62
44349;BME280;30068;50.986;4.564;2023-08-20T00:24:26;102122.88;;;26.94;56.54
44349;BME280;30068;50.986;4.564;2023-08-20T00:26:51;102118.25;;;26.95;56.31
44349;BME280;30068;50.986;4.564;2023-08-20T00:29:16;102128.34;;;26.94;56.46
44349;BME280;30068;50.986;4.564;2023-08-20T00:31:42;102130.44;;;26.92;56.44
44349;BME280;30068;50.986;4.564;2023-08-20T00:34:07;102133.19;;;26.92;56.63
44349;BME280;30068;50.986;4.564;2023-08-20T00:36:32;102135.25;;;26.90;56.52
44349;BME280;30068;50.986;4.564;2023-08-20T00:38:58;102139.69;;;26.91;56.62
44349;BME280;30068;50.986;4.564;2023-08-20T00:41:23;102141.78;;;26.89;56.58
44349;BME280;30068;50.986;4.564;2023-08-20T00:43:48;102139.06;;;26.89;56.39
44349;BME280;30068;50.986;4.564;2023-08-20T00:46:14;102134.63;;;26.88;56.60
44349;BME280;30068;50.986;4.564;2023-08-20T00:48:39;102138.41;;;26.87;56.57
44349;BME280;30068;50.986;4.564;2023-08-20T00:51:04;102138.41;;;26.87;56.38
44349;BME280;30068;50.986;4.564;2023-08-20T00:53:29;102143.88;;;26.87;56.70
44349;BME280;30068;50.986;4.564;2023-08-20T00:55:55;102137.53;;;26.87;56.62
44349;BME280;30068;50.986;4.564;2023-08-20T00:58:20;102136.69;;;26.86;56.85
44349;BME280;30068;50.986;4.564;2023-08-20T01:00:45;102139.44;;;26.86;56.61
44349;BME280;30068;50.986;4.564;2023-08-20T01:03:10;102131.22;;;26.86;56.67
44349;BME280;30068;50.986;4.564;2023-08-20T01:05:37;102129.53;;;26.85;56.85
44349;BME280;30068;50.986;4.564;2023-08-20T01:08:17;102135.84;;;26.86;56.64
44349;BME280;30068;50.986;4.564;2023-08-20T01:10:56;102139.63;;;26.85;56.67
44349;BME280;30068;50.986;4.564;2023-08-20T01:13:22;102145.97;;;26.85;56.72
44349;BME280;30068;50.986;4.564;2023-08-20T01:15:47;102138.78;;;26.84;56.61
44349;BME280;30068;50.986;4.564;2023-08-20T01:18:13;102145.09;;;26.85;56.82
44349;BME280;30068;50.986;4.564;2023-08-20T01:20:42;102143.41;;;26.84;56.71
44349;BME280;30068;50.986;4.564;2023-08-20T01:26:00;102142.56;;;26.83;56.83
44349;BME280;30068;50.986;4.564;2023-08-20T01:28:32;102142.56;;;26.83;56.75
44349;BME280;30068;50.986;4.564;2023-08-20T01:30:58;102146.34;;;26.82;56.60
44349;BME280;30068;50.986;4.564;2023-08-20T01:33:24;102149.09;;;26.82;56.70
44349;BME280;30068;50.986;4.564;2023-08-20T01:35:50;102157.31;;;26.82;56.95
44349;BME280;30068;50.986;4.564;2023-08-20T01:38:15;102155.63;;;26.81;56.79
44349;BME280;30068;50.986;4.564;2023-08-20T01:40:40;102158.38;;;26.81;56.76
44349;BME280;30068;50.986;4.564;2023-08-20T01:43:06;102149.31;;;26.81;56.69
44349;BME280;30068;50.986;4.564;2023-08-20T01:45:32;102163.00;;;26.81;56.72
44349;BME280;30068;50.986;4.564;2023-08-20T01:47:57;102161.31;;;26.80;56.82
44349;BME280;30068;50.986;4.564;2023-08-20T01:50:22;102165.75;;;26.81;56.88
44349;BME280;30068;50.986;4.564;2023-08-20T01:52:47;102176.69;;;26.81;57.04
44349;BME280;30068;50.986;4.564;2023-08-20T01:55:13;102172.28;;;26.80;56.95
44349;BME280;30068;50.986;4.564;2023-08-20T01:57:38;102168.69;;;26.79;57.07
44349;BME280;30068;50.986;4.564;2023-08-20T02:00:04;102173.31;;;26.79;57.09
44349;BME280;30068;50.986;4.564;2023-08-20T02:02:33;102173.31;;;26.79;56.96
44349;BME280;30068;50.986;4.564;2023-08-20T02:04:59;102177.94;;;26.78;56.95
44349;BME280;30068;50.986;4.564;2023-08-20T02:07:24;102177.94;;;26.78;56.88
44349;BME280;30068;50.986;4.564;2023-08-20T02:09:49;102182.56;;;26.78;56.79
44349;BME280;30068;50.986;4.564;2023-08-20T02:12:15;102189.94;;;26.77;56.93
44349;BME280;30068;50.986;4.564;2023-08-20T02:14:40;102187.19;;;26.77;56.96
44349;BME280;30068;50.986;4.564;2023-08-20T02:17:06;102180.88;;;26.77;57.05
44349;BME280;30068;50.986;4.564;2023-08-20T02:19:31;102180.88;;;26.77;57.03
44349;BME280;30068;50.986;4.564;2023-08-20T02:21:57;102178.31;;;26.75;56.89
44349;BME280;30068;50.986;4.564;2023-08-20T02:24:22;102176.44;;;26.75;56.87
44349;BME280;30068;50.986;4.564;2023-08-20T02:26:47;102175.59;;;26.75;56.90
44349;BME280;30068;50.986;4.564;2023-08-20T02:29:12;102170.09;;;26.75;56.90
44349;BME280;30068;50.986;4.564;2023-08-20T02:31:38;102172.03;;;26.74;56.71
44349;BME280;30068;50.986;4.564;2023-08-20T02:34:03;102171.19;;;26.74;56.95
44349;BME280;30068;50.986;4.564;2023-08-20T02:36:28;102162.13;;;26.73;56.82
44349;BME280;30068;50.986;4.564;2023-08-20T02:38:54;102162.97;;;26.74;56.81
44349;BME280;30068;50.986;4.564;2023-08-20T02:41:19;102157.50;;;26.74;56.98
44349;BME280;30068;50.986;4.564;2023-08-20T02:43:44;102158.53;;;26.73;57.10
44349;BME280;30068;50.986;4.564;2023-08-20T02:46:10;102162.31;;;26.72;57.17
44349;BME280;30068;50.986;4.564;2023-08-20T02:48:35;102165.91;;;26.72;57.09
44349;BME280;30068;50.986;4.564;2023-08-20T02:51:00;102163.16;;;26.72;56.89
44349;BME280;30068;50.986;4.564;2023-08-20T02:53:25;102163.16;;;26.72;56.95
44349;BME280;30068;50.986;4.564;2023-08-20T02:55:51;102163.34;;;26.71;57.02
44349;BME280;30068;50.986;4.564;2023-08-20T02:58:16;102163.34;;;26.71;56.94
44349;BME280;30068;50.986;4.564;2023-08-20T03:00:41;102168.84;;;26.71;57.08
44349;BME280;30068;50.986;4.564;2023-08-20T03:03:08;102165.25;;;26.70;57.16
44349;BME280;30068;50.986;4.564;2023-08-20T03:05:34;102169.88;;;26.70;57.15
44349;BME280;30068;50.986;4.564;2023-08-20T03:08:00;102162.69;;;26.69;57.11
44349;BME280;30068;50.986;4.564;2023-08-20T03:10:26;102170.91;;;26.69;57.02
44349;BME280;30068;50.986;4.564;2023-08-20T03:12:51;102168.19;;;26.69;57.07
44349;BME280;30068;50.986;4.564;2023-08-20T03:15:17;102172.00;;;26.68;56.74
44349;BME280;30068;50.986;4.564;2023-08-20T03:17:42;102166.50;;;26.68;57.03
44349;BME280;30068;50.986;4.564;2023-08-20T03:20:07;102167.94;;;26.64;57.11
44349;BME280;30068;50.986;4.564;2023-08-20T03:22:33;102163.97;;;26.66;56.99
44349;BME280;30068;50.986;4.564;2023-08-20T03:24:58;102168.59;;;26.66;56.78
44349;BME280;30068;50.986;4.564;2023-08-20T03:27:23;102168.59;;;26.66;56.88
44349;BME280;30068;50.986;4.564;2023-08-20T03:29:49;102167.75;;;26.65;56.91
44349;BME280;30068;50.986;4.564;2023-08-20T03:32:14;102172.38;;;26.65;57.05
44349;BME280;30068;50.986;4.564;2023-08-20T03:34:39;102171.53;;;26.64;57.05
44349;BME280;30068;50.986;4.564;2023-08-20T03:37:04;102169.81;;;26.63;56.63
44349;BME280;30068;50.986;4.564;2023-08-20T03:39:30;102164.34;;;26.63;56.97
44349;BME280;30068;50.986;4.564;2023-08-20T03:41:56;102167.28;;;26.62;56.99
44349;BME280;30068;50.986;4.564;2023-08-20T03:44:21;102176.34;;;26.62;56.60
44349;BME280;30068;50.986;4.564;2023-08-20T03:46:47;102168.13;;;26.62;57.07
44349;BME280;30068;50.986;4.564;2023-08-20T03:49:12;102175.50;;;26.62;56.99
44349;BME280;30068;50.986;4.564;2023-08-20T03:51:37;102172.97;;;26.60;56.99
44349;BME280;30068;50.986;4.564;2023-08-20T03:54:02;102173.84;;;26.61;56.94
44349;BME280;30068;50.986;4.564;2023-08-20T03:56:28;102176.56;;;26.61;56.65
44349;BME280;30068;50.986;4.564;2023-08-20T03:58:53;102177.59;;;26.60;56.88
44349;BME280;30068;50.986;4.564;2023-08-20T04:01:19;102184.13;;;26.59;56.98
44349;BME280;30068;50.986;4.564;2023-08-20T04:03:47;102176.28;;;26.56;56.96
44349;BME280;30068;50.986;4.564;2023-08-20T04:06:13;102187.53;;;26.61;56.95
44349;BME280;30068;50.986;4.564;2023-08-20T04:08:38;102189.41;;;26.60;57.07
44349;BME280;30068;50.986;4.564;2023-08-20T04:11:04;102188.75;;;26.58;56.85
44349;BME280;30068;50.986;4.564;2023-08-20T04:13:29;102194.63;;;26.55;56.66
44349;BME280;30068;50.986;4.564;2023-08-20T04:15:55;102190.84;;;26.56;57.21
44349;BME280;30068;50.986;4.564;2023-08-20T04:18:20;102189.97;;;26.56;57.07
44349;BME280;30068;50.986;4.564;2023-08-20T04:20:46;102198.84;;;26.58;57.06
44349;BME280;30068;50.986;4.564;2023-08-20T04:23:11;102197.81;;;26.59;56.89
44349;BME280;30068;50.986;4.564;2023-08-20T04:25:36;102201.00;;;26.62;57.19
44349;BME280;30068;50.986;4.564;2023-08-20T04:28:01;102201.66;;;26.64;56.99
44349;BME280;30068;50.986;4.564;2023-08-20T04:30:27;102207.78;;;26.66;57.11
44349;BME280;30068;50.986;4.564;2023-08-20T04:32:52;102199.16;;;26.69;57.10
44349;BME280;30068;50.986;4.564;2023-08-20T04:35:17;102201.69;;;26.71;57.09
44349;BME280;30068;50.986;4.564;2023-08-20T04:37:42;102208.88;;;26.72;57.11
44349;BME280;30068;50.986;4.564;2023-08-20T04:40:08;102214.16;;;26.73;57.08
44349;BME280;30068;50.986;4.564;2023-08-20T04:42:33;102204.91;;;26.74;57.08
44349;BME280;30068;50.986;4.564;2023-08-20T04:44:58;102213.75;;;26.77;57.13
44349;BME280;30068;50.986;4.564;2023-08-20T04:47:24;102209.97;;;26.78;56.89
44349;BME280;30068;50.986;4.564;2023-08-20T04:49:49;102207.03;;;26.79;56.77
44349;BME280;30068;50.986;4.564;2023-08-20T04:52:14;102204.94;;;26.81;57.00
44349;BME280;30068;50.986;4.564;2023-08-20T04:54:40;102207.69;;;26.81;56.99
44349;BME280;30068;50.986;4.564;2023-08-20T04:57:05;102211.28;;;26.82;56.85
44349;BME280;30068;50.986;4.564;2023-08-20T04:59:30;102212.09;;;26.82;56.92
44349;BME280;30068;50.986;4.564;2023-08-20T05:01:56;102216.34;;;26.85;56.77
44349;BME280;30068;50.986;4.564;2023-08-20T05:04:21;102213.59;;;26.85;56.73
44349;BME280;30068;50.986;4.564;2023-08-20T05:06:47;102219.72;;;26.87;56.72
44349;BME280;30068;50.986;4.564;2023-08-20T05:09:12;102209.81;;;26.86;56.76
44349;BME280;30068;50.986;4.564;2023-08-20T05:11:37;102218.88;;;26.86;56.64
44349;BME280;30068;50.986;4.564;2023-08-20T05:14:03;102218.88;;;26.86;56.68
44349;BME280;30068;50.986;4.564;2023-08-20T05:16:28;102216.81;;;26.88;56.73
44349;BME280;30068;50.986;4.564;2023-08-20T05:18:53;102221.44;;;26.88;56.50
44349;BME280;30068;50.986;4.564;2023-08-20T05:21:18;102223.97;;;26.89;56.61
44349;BME280;30068;50.986;4.564;2023-08-20T05:23:43;102223.09;;;26.89;56.61
44349;BME280;30068;50.986;4.564;2023-08-20T05:26:09;102223.97;;;26.89;56.56
44349;BME280;30068;50.986;4.564;2023-08-20T05:28:35;102225.69;;;26.90;56.49
44349;BME280;30068;50.986;4.564;2023-08-20T05:31:00;102222.09;;;26.90;56.33
44349;BME280;30068;50.986;4.564;2023-08-20T05:33:25;102216.41;;;26.91;56.41
44349;BME280;30068;50.986;4.564;2023-08-20T05:35:51;102216.41;;;26.91;56.65
44349;BME280;30068;50.986;4.564;2023-08-20T05:38:16;102215.56;;;26.91;56.66
44349;BME280;30068;50.986;4.564;2023-08-20T05:40:42;102226.53;;;26.91;56.48
44349;BME280;30068;50.986;4.564;2023-08-20T05:43:07;102219.16;;;26.91;56.50
44349;BME280;30068;50.986;4.564;2023-08-20T05:45:32;102222.75;;;26.92;56.54
44349;BME280;30068;50.986;4.564;2023-08-20T05:47:57;102229.91;;;26.93;56.43
44349;BME280;30068;50.986;4.564;2023-08-20T05:50:23;102231.81;;;26.92;56.45
44349;BME280;30068;50.986;4.564;2023-08-20T05:52:48;102232.47;;;26.94;56.42
44349;BME280;30068;50.986;4.564;2023-08-20T05:55:13;102224.44;;;26.93;56.28
44349;BME280;30068;50.986;4.564;2023-08-20T05:57:39;102222.34;;;26.95;56.44
44349;BME280;30068;50.986;4.564;2023-08-20T06:00:04;102223.22;;;26.95;56.30
44349;BME280;30068;50.986;4.564;2023-08-20T06:02:30;102227.84;;;26.95;56.39
44349;BME280;30068;50.986;4.564;2023-08-20T06:04:55;102223.22;;;26.95;56.62
44349;BME280;30068;50.986;4.564;2023-08-20T06:07:20;102216.88;;;26.95;56.24
44349;BME280;30068;50.986;4.564;2023-08-20T06:09:45;102231.44;;;26.95;56.35
44349;BME280;30068;50.986;4.564;2023-08-20T06:12:11;102234.97;;;26.96;56.50
44349;BME280;30068;50.986;4.564;2023-08-20T06:14:36;102239.66;;;26.95;56.36
44349;BME280;30068;50.986;4.564;2023-08-20T06:17:01;102232.47;;;26.94;56.55
44349;BME280;30068;50.986;4.564;2023-08-20T06:19:27;102239.66;;;26.95;56.39
44349;BME280;30068;50.986;4.564;2023-08-20T06:21:53;102230.56;;;26.95;56.31
44349;BME280;30068;50.986;4.564;2023-08-20T06:24:18;102238.78;;;26.95;56.25
44349;BME280;30068;50.986;4.564;2023-08-20T06:26:43;102236.91;;;26.95;56.33
44349;BME280;30068;50.986;4.564;2023-08-20T06:29:09;102234.16;;;26.95;56.46
44349;BME280;30068;50.986;4.564;2023-08-20T06:31:35;102236.91;;;26.95;56.36
44349;BME280;30068;50.986;4.564;2023-08-20T06:34:00;102228.69;;;26.95;56.47
44349;BME280;30068;50.986;4.564;2023-08-20T06:36:25;102235.84;;;26.96;56.34
44349;BME280;30068;50.986;4.564;2023-08-20T06:38:51;102240.47;;;26.96;56.01
44349;BME280;30068;50.986;4.564;2023-08-20T06:41:16;102247.63;;;26.97;56.32
44349;BME280;30068;50.986;4.564;2023-08-20T06:43:41;102246.59;;;26.98;56.26
44349;BME280;30068;50.986;4.564;2023-08-20T06:46:07;102237.53;;;26.97;56.53
44349;BME280;30068;50.986;4.564;2023-08-20T06:48:32;102240.28;;;26.97;56.29
44349;BME280;30068;50.986;4.564;2023-08-20T06:50:57;102239.22;;;26.98;56.24
44349;BME280;30068;50.986;4.564;2023-08-20T06:53:22;102241.78;;;27.00;56.23
44349;BME280;30068;50.986;4.564;2023-08-20T06:55:48;102239.88;;;27.00;56.30
44349;BME280;30068;50.986;4.564;2023-08-20T06:58:13;102241.59;;;27.01;56.25
44349;BME280;30068;50.986;4.564;2023-08-20T07:00:38;102239.69;;;27.02;56.24
44349;BME280;30068;50.986;4.564;2023-08-20T07:03:03;102248.72;;;27.02;56.15
44349;BME280;30068;50.986;4.564;2023-08-20T07:05:29;102232.28;;;27.02;56.37
44349;BME280;30068;50.986;4.564;2023-08-20T07:07:54;102240.50;;;27.02;56.22
44349;BME280;30068;50.986;4.564;2023-08-20T07:10:19;102240.31;;;27.04;56.35
44349;BME280;30068;50.986;4.564;2023-08-20T07:12:44;102251.47;;;27.02;56.33
44349;BME280;30068;50.986;4.564;2023-08-20T07:15:10;102251.47;;;27.02;56.14
44349;BME280;30068;50.986;4.564;2023-08-20T07:17:36;102251.47;;;27.02;56.05
44349;BME280;30068;50.986;4.564;2023-08-20T07:20:01;102258.66;;;27.03;56.27
44349;BME280;30068;50.986;4.564;2023-08-20T07:22:28;102264.13;;;27.03;56.18
44349;BME280;30068;50.986;4.564;2023-08-20T07:24:53;102252.31;;;27.03;56.27
44349;BME280;30068;50.986;4.564;2023-08-20T07:27:18;102263.28;;;27.03;56.30
44349;BME280;30068;50.986;4.564;2023-08-20T07:29:43;102257.78;;;27.03;56.25
44349;BME280;30068;50.986;4.564;2023-08-20T07:32:09;102256.94;;;27.02;56.09
44349;BME280;30068;50.986;4.564;2023-08-20T07:34:34;102251.47;;;27.02;56.20
44349;BME280;30068;50.986;4.564;2023-08-20T07:36:59;102265.16;;;27.02;56.33
44349;BME280;30068;50.986;4.564;2023-08-20T07:39:25;102262.44;;;27.02;56.23
44349;BME280;30068;50.986;4.564;2023-08-20T07:41:50;102255.91;;;27.03;56.16
44349;BME280;30068;50.986;4.564;2023-08-20T07:44:15;102256.13;;;27.02;56.17
44349;BME280;30068;50.986;4.564;2023-08-20T07:46:41;102262.44;;;27.02;56.03
44349;BME280;30068;50.986;4.564;2023-08-20T07:49:06;102268.75;;;27.03;56.19
44349;BME280;30068;50.986;4.564;2023-08-20T07:51:31;102267.09;;;27.02;56.20
44349;BME280;30068;50.986;4.564;2023-08-20T07:53:57;102267.91;;;27.02;56.27
44349;BME280;30068;50.986;4.564;2023-08-20T07:56:23;102265.16;;;27.02;56.17
44349;BME280;30068;50.986;4.564;2023-08-20T07:58:48;102272.34;;;27.03;56.21
44349;BME280;30068;50.986;4.564;2023-08-20T08:01:14;102275.09;;;27.03;56.33
44349;BME280;30068;50.986;4.564;2023-08-20T08:03:39;102271.50;;;27.03;56.18
44349;BME280;30068;50.986;4.564;2023-08-20T08:06:05;102274.03;;;27.04;56.44
44349;BME280;30068;50.986;4.564;2023-08-20T08:08:30;102274.03;;;27.04;56.21
44349;BME280;30068;50.986;4.564;2023-08-20T08:10:55;102280.38;;;27.05;56.21
44349;BME280;30068;50.986;4.564;2023-08-20T08:13:21;102281.22;;;27.05;56.16
44349;BME280;30068;50.986;4.564;2023-08-20T08:15:47;102279.34;;;27.06;56.26
44349;BME280;30068;50.986;4.564;2023-08-20T08:18:12;102273.84;;;27.06;55.99
44349;BME280;30068;50.986;4.564;2023-08-20T08:20:37;102273.84;;;27.06;56.25
44349;BME280;30068;50.986;4.564;2023-08-20T08:23:03;102279.34;;;27.06;56.21
44349;BME280;30068;50.986;4.564;2023-08-20T08:25:28;102275.75;;;27.05;56.33
44349;BME280;30068;50.986;4.564;2023-08-20T08:27:53;102281.22;;;27.05;55.99
44349;BME280;30068;50.986;4.564;2023-08-20T08:30:18;102283.78;;;27.07;55.96
44349;BME280;30068;50.986;4.564;2023-08-20T08:32:44;102284.63;;;27.07;56.02
44349;BME280;30068;50.986;4.564;2023-08-20T08:35:09;102274.50;;;27.08;56.04
44349;BME280;30068;50.986;4.564;2023-08-20T08:37:35;102282.72;;;27.08;56.21
44349;BME280;30068;50.986;4.564;2023-08-20T08:40:01;102283.59;;;27.08;55.89
44349;BME280;30068;50.986;4.564;2023-08-20T08:42:26;102287.16;;;27.09;55.95
44349;BME280;30068;50.986;4.564;2023-08-20T08:44:51;102290.94;;;27.08;55.93
44349;BME280;30068;50.986;4.564;2023-08-20T08:47:18;102279.75;;;27.09;55.96
44349;BME280;30068;50.986;4.564;2023-08-20T08:49:43;102283.34;;;27.10;55.96
44349;BME280;30068;50.986;4.564;2023-08-20T08:52:09;102282.50;;;27.09;55.96
44349;BME280;30068;50.986;4.564;2023-08-20T08:54:36;102285.25;;;27.09;55.79
44349;BME280;30068;50.986;4.564;2023-08-20T08:57:01;102285.25;;;27.09;55.91
44349;BME280;30068;50.986;4.564;2023-08-20T08:59:26;102279.34;;;27.06;56.06
44349;BME280;30068;50.986;4.564;2023-08-20T09:01:52;102284.44;;;27.09;55.79
44349;BME280;30068;50.986;4.564;2023-08-20T09:04:18;102286.94;;;27.10;55.89
44349;BME280;30068;50.986;4.564;2023-08-20T09:06:44;102292.44;;;27.10;56.03
44349;BME280;30068;50.986;4.564;2023-08-20T09:09:09;102287.78;;;27.11;55.83
44349;BME280;30068;50.986;4.564;2023-08-20T09:11:34;102286.94;;;27.10;55.95
44349;BME280;30068;50.986;4.564;2023-08-20T09:14:00;102286.09;;;27.10;55.83
44349;BME280;30068;50.986;4.564;2023-08-20T09:16:25;102286.94;;;27.10;55.85
44349;BME280;30068;50.986;4.564;2023-08-20T09:18:54;102288.66;;;27.11;55.79
44349;BME280;30068;50.986;4.564;2023-08-20T09:21:20;102293.09;;;27.12;55.88
44349;BME280;30068;50.986;4.564;2023-08-20T09:23:53;102285.91;;;27.11;55.77
44349;BME280;30068;50.986;4.564;2023-08-20T09:26:18;102288.66;;;27.11;55.92
44349;BME280;30068;50.986;4.564;2023-08-20T09:28:45;102288.66;;;27.11;55.68
44349;BME280;30068;50.986;4.564;2023-08-20T09:31:11;102288.66;;;27.11;55.82
44349;BME280;30068;50.986;4.564;2023-08-20T09:33:36;102284.88;;;27.12;55.72
44349;BME280;30068;50.986;4.564;2023-08-20T09:36:02;102289.31;;;27.13;55.59
44349;BME280;30068;50.986;4.564;2023-08-20T09:38:27;102290.34;;;27.12;55.67
44349;BME280;30068;50.986;4.564;2023-08-20T09:40:53;102295.81;;;27.12;55.74
44349;BME280;30068;50.986;4.564;2023-08-20T09:43:21;102292.03;;;27.13;55.60
44349;BME280;30068;50.986;4.564;2023-08-20T09:45:51;102295.63;;;27.14;55.35
44349;BME280;30068;50.986;4.564;2023-08-20T09:48:18;102297.53;;;27.13;55.49
44349;BME280;30068;50.986;4.564;2023-08-20T09:50:46;102295.81;;;27.12;55.54
44349;BME280;30068;50.986;4.564;2023-08-20T09:55:58;102291.84;;;27.15;55.45
44349;BME280;30068;50.986;4.564;2023-08-20T09:58:28;102291.84;;;27.15;55.44
44349;BME280;30068;50.986;4.564;2023-08-20T10:00:55;102293.75;;;27.15;55.52
44349;BME280;30068;50.986;4.564;2023-08-20T10:03:20;102296.47;;;27.15;55.45
44349;BME280;30068;50.986;4.564;2023-08-20T10:05:46;102291.00;;;27.15;55.56
44349;BME280;30068;50.986;4.564;2023-08-20T10:08:13;102293.75;;;27.15;55.56
44349;BME280;30068;50.986;4.564;2023-08-20T10:10:39;102299.00;;;27.16;55.32
44349;BME280;30068;50.986;4.564;2023-08-20T10:13:04;102299.22;;;27.15;55.48
44349;BME280;30068;50.986;4.564;2023-08-20T10:15:30;102292.69;;;27.16;55.50
44349;BME280;30068;50.986;4.564;2023-08-20T10:17:57;102300.91;;;27.16;55.54
44349;BME280;30068;50.986;4.564;2023-08-20T10:20:22;102302.59;;;27.17;55.47
44349;BME280;30068;50.986;4.564;2023-08-20T10:22:48;102303.44;;;27.17;55.47
44349;BME280;30068;50.986;4.564;2023-08-20T10:25:22;102297.75;;;27.19;55.40
44349;BME280;30068;50.986;4.564;2023-08-20T10:27:48;102299.84;;;27.17;55.52
44349;BME280;30068;50.986;4.564;2023-08-20T10:30:16;102297.09;;;27.17;55.51
44349;BME280;30068;50.986;4.564;2023-08-20T10:32:49;102295.03;;;27.19;55.45
44349;BME280;30068;50.986;4.564;2023-08-20T10:35:15;102292.47;;;27.17;55.55
44349;BME280;30068;50.986;4.564;2023-08-20T10:37:59;102291.63;;;27.17;55.23
44349;BME280;30068;50.986;4.564;2023-08-20T10:43:09;102275.19;;;27.17;55.42
44349;BME280;30068;50.986;4.564;2023-08-20T10:45:42;102276.88;;;27.18;55.50
44349;BME280;30068;50.986;4.564;2023-08-20T10:48:08;102274.13;;;27.18;55.42
44349;BME280;30068;50.986;4.564;2023-08-20T10:50:33;102265.91;;;27.18;55.37
44349;BME280;30068;50.986;4.564;2023-08-20T10:53:00;102269.50;;;27.18;55.66
44349;BME280;30068;50.986;4.564;2023-08-20T10:55:28;102265.91;;;27.18;55.38
44349;BME280;30068;50.986;4.564;2023-08-20T10:57:57;102262.13;;;27.19;55.64
44349;BME280;30068;50.986;4.564;2023-08-20T11:00:24;102268.47;;;27.19;55.30
44349;BME280;30068;50.986;4.564;2023-08-20T11:02:50;102262.13;;;27.19;55.21
44349;BME280;30068;50.986;4.564;2023-08-20T11:05:16;102260.25;;;27.19;55.44
44349;BME280;30068;50.986;4.564;2023-08-20T11:07:44;102258.53;;;27.18;55.47
44349;BME280;30068;50.986;4.564;2023-08-20T11:10:10;102259.38;;;27.19;55.37
44349;BME280;30068;50.986;4.564;2023-08-20T11:12:35;102256.66;;;27.19;55.38
44349;BME280;30068;50.986;4.564;2023-08-20T11:15:01;102251.16;;;27.19;55.25
44349;BME280;30068;50.986;4.564;2023-08-20T11:17:27;102257.50;;;27.19;55.42
44349;BME280;30068;50.986;4.564;2023-08-20T11:19:53;102250.31;;;27.18;55.20
44349;BME280;30068;50.986;4.564;2023-08-20T11:22:18;102241.06;;;27.19;55.20
44349;BME280;30068;50.986;4.564;2023-08-20T11:24:43;102239.34;;;27.18;55.39
44349;BME280;30068;50.986;4.564;2023-08-20T11:27:09;102235.56;;;27.19;55.38
44349;BME280;30068;50.986;4.564;2023-08-20T11:29:34;102234.72;;;27.19;55.42
44349;BME280;30068;50.986;4.564;2023-08-20T11:31:59;102234.72;;;27.19;55.45
44349;BME280;30068;50.986;4.564;2023-08-20T11:34:28;102236.41;;;27.20;55.27
44349;BME280;30068;50.986;4.564;2023-08-20T11:36:54;102239.16;;;27.20;55.49
44349;BME280;30068;50.986;4.564;2023-08-20T11:39:19;102230.94;;;27.20;55.13
44349;BME280;30068;50.986;4.564;2023-08-20T11:41:44;102238.97;;;27.21;55.21
44349;BME280;30068;50.986;4.564;2023-08-20T11:44:10;102233.47;;;27.21;55.31
44349;BME280;30068;50.986;4.564;2023-08-20T11:46:42;102233.47;;;27.21;55.26
44349;BME280;30068;50.986;4.564;2023-08-20T11:49:09;102236.22;;;27.21;55.39
44349;BME280;30068;50.986;4.564;2023-08-20T11:51:38;102238.13;;;27.21;55.27
44349;BME280;30068;50.986;4.564;2023-08-20T11:54:09;102232.63;;;27.21;55.22
44349;BME280;30068;50.986;4.564;2023-08-20T11:56:35;102231.78;;;27.20;55.23
44349;BME280;30068;50.986;4.564;2023-08-20T11:59:01;102230.94;;;27.20;55.35
44349;BME280;30068;50.986;4.564;2023-08-20T12:01:32;102238.13;;;27.21;55.12
44349;BME280;30068;50.986;4.564;2023-08-20T12:04:03;102229.88;;;27.21;55.29
44349;BME280;30068;50.986;4.564;2023-08-20T12:06:28;102236.22;;;27.21;55.05
44349;BME280;30068;50.986;4.564;2023-08-20T12:08:55;102228.38;;;27.18;55.31
44349;BME280;30068;50.986;4.564;2023-08-20T12:11:23;102229.88;;;27.21;55.10
44349;BME280;30068;50.986;4.564;2023-08-20T12:13:49;102228.84;;;27.22;54.94
44349;BME280;30068;50.986;4.564;2023-08-20T12:16:14;102228.00;;;27.21;54.97
44349;BME280;30068;50.986;4.564;2023-08-20T12:18:39;102217.88;;;27.22;54.95
44349;BME280;30068;50.986;4.564;2023-08-20T12:21:05;102209.66;;;27.22;55.21
44349;BME280;30068;50.986;4.564;2023-08-20T12:23:30;102211.56;;;27.21;54.92
44349;BME280;30068;50.986;4.564;2023-08-20T12:25:55;102214.09;;;27.23;54.70
44349;BME280;30068;50.986;4.564;2023-08-20T12:28:21;102214.09;;;27.23;55.02
44349;BME280;30068;50.986;4.564;2023-08-20T12:30:47;102212.19;;;27.23;54.94
44349;BME280;30068;50.986;4.564;2023-08-20T12:33:12;102213.88;;;27.24;55.11
44349;BME280;30068;50.986;4.564;2023-08-20T12:35:38;102213.69;;;27.26;55.08
44349;BME280;30068;50.986;4.564;2023-08-20T12:38:03;102213.69;;;27.26;54.89
44349;BME280;30068;50.986;4.564;2023-08-20T12:40:31;102213.69;;;27.26;54.99
44349;BME280;30068;50.986;4.564;2023-08-20T12:42:56;102209.88;;;27.27;54.87
44349;BME280;30068;50.986;4.564;2023-08-20T12:45:21;102208.84;;;27.28;54.94
44349;BME280;30068;50.986;4.564;2023-08-20T12:47:46;102209.00;;;27.20;55.06
44349;BME280;30068;50.986;4.564;2023-08-20T12:50:12;102204.69;;;27.04;53.59
44349;BME280;30068;50.986;4.564;2023-08-20T12:52:39;102202.84;;;27.11;52.57